Time;durP1;ratioP1;P1;durP2;ratioP2;P2;SDS_P1;SDS_P2;PMS_P1;PMS_P2;Temp;Humidity;BMP_temperature;BMP_pressure;BME280_temperature;BME280_humidity;BME280_pressure;Samples;Min_cycle;Max_cycle;Signal;HPM_P1;HPM_P2
2022/03/18 00:01:25;;;;;;;20.08;10.88;;;;;;;4.07;37.41;102296.03;5083956;28;20479;-72
2022/03/18 00:03:52;;;;;;;20.83;12.00;;;;;;;4.05;37.75;102306.53;5083234;28;20055;-73
2022/03/18 00:06:19;;;;;;;24.92;12.10;;;;;;;3.99;37.56;102304.84;5083633;28;20674;-71
2022/03/18 00:08:49;;;;;;;19.50;10.60;;;;;;;3.99;37.63;102304.84;5083269;28;20135;-68
2022/03/18 00:11:16;;;;;;;21.23;12.10;;;;;;;3.96;37.66;102314.47;5082551;28;20044;-71
2022/03/18 00:13:43;;;;;;;26.02;11.40;;;;;;;3.93;37.96;102309.31;5082739;28;20056;-68
2022/03/18 00:16:10;;;;;;;17.65;11.25;;;;;;;3.91;38.05;102314.56;5083023;28;20050;-72
2022/03/18 00:18:37;;;;;;;13.48;7.57;;;;;;;3.89;37.87;102313.72;5083183;28;20131;-72
2022/03/18 00:21:06;;;;;;;17.98;10.18;;;;;;;3.84;38.35;102320.72;5084359;28;20249;-69
2022/03/18 00:23:33;;;;;;;17.85;9.65;;;;;;;3.85;38.17;102312.00;5083620;28;20087;-71
2022/03/18 00:26:03;;;;;;;25.17;14.65;;;;;;;3.83;37.95;102313.75;5082803;28;20046;-70
2022/03/18 00:28:29;;;;;;;31.75;13.75;;;;;;;3.78;38.22;102315.56;5081308;28;20050;-71
2022/03/18 00:30:57;;;;;;;23.73;10.98;;;;;;;3.76;38.41;102318.22;5083997;28;20040;-70
2022/03/18 00:33:25;;;;;;;24.17;8.50;;;;;;;3.77;38.10;102316.44;5082946;28;20044;-70
2022/03/18 00:35:52;;;;;;;17.13;9.43;;;;;;;3.73;38.20;102314.75;5083302;28;20044;-71
2022/03/18 00:38:19;;;;;;;17.00;9.57;;;;;;;3.72;38.10;102306.03;5083802;28;20437;-72
2022/03/18 00:40:46;;;;;;;18.55;7.93;;;;;;;3.72;38.20;102307.78;5083635;28;20518;-70
2022/03/18 00:43:14;;;;;;;19.55;12.75;;;;;;;3.69;38.37;102310.44;5084046;28;20044;-71
2022/03/18 00:45:41;;;;;;;14.40;8.57;;;;;;;3.70;38.34;102314.78;5084242;28;20044;-74
2022/03/18 00:53:37;;;;;;;15.27;8.55;;;;;;;3.64;38.08;102321.81;5083445;28;20055;-69
2022/03/18 00:56:04;;;;;;;16.55;8.00;;;;;;;3.62;38.25;102322.72;5083102;28;20052;-71
2022/03/18 00:58:33;;;;;;;10.98;6.20;;;;;;;3.62;38.18;102318.34;5080050;28;20535;-71
2022/03/18 01:01:00;;;;;;;16.10;9.23;;;;;;;3.61;38.45;102319.22;5083196;28;20040;-69
2022/03/18 01:03:27;;;;;;;9.80;4.85;;;;;;;3.62;38.23;102320.09;5084951;28;20044;-69
2022/03/18 01:05:54;;;;;;;14.40;8.30;;;;;;;3.59;38.50;102315.75;5085494;28;20052;-69
2022/03/18 01:08:21;;;;;;;12.13;7.57;;;;;;;3.58;38.43;102328.84;5086548;28;20059;-70
2022/03/18 01:10:49;;;;;;;20.23;10.93;;;;;;;3.53;38.60;102315.84;5086251;28;20040;-71
2022/03/18 01:13:16;;;;;;;12.65;6.75;;;;;;;3.54;38.43;102317.53;5086202;28;20059;-70
2022/03/18 01:15:44;;;;;;;15.23;7.55;;;;;;;3.52;38.62;102314.09;5086117;28;20048;-69
2022/03/18 01:18:11;;;;;;;16.25;9.27;;;;;;;3.51;38.45;102312.38;5086261;28;20127;-70
2022/03/18 01:20:38;;;;;;;14.68;7.57;;;;;;;3.47;38.35;102315.03;5087316;28;20509;-70
2022/03/18 01:23:06;;;;;;;24.02;11.27;;;;;;;3.44;38.60;102311.56;5086411;28;20667;-71
2022/03/18 01:25:33;;;;;;;17.50;8.43;;;;;;;3.42;38.61;102318.56;5086772;28;20048;-75
2022/03/18 01:28:01;;;;;;;18.45;11.10;;;;;;;3.41;38.78;102315.94;5086777;28;20044;-69
2022/03/18 01:30:30;;;;;;;13.98;6.75;;;;;;;3.41;38.88;102310.72;5084628;28;20044;-70
2022/03/18 01:33:00;;;;;;;19.60;10.68;;;;;;;3.34;38.83;102309.06;5086758;28;20377;-68
2022/03/18 01:35:27;;;;;;;16.63;9.48;;;;;;;3.33;38.89;102309.91;5087128;28;20582;-69
2022/03/18 01:37:54;;;;;;;18.08;10.13;;;;;;;3.32;38.82;102310.81;5086952;28;20044;-71
2022/03/18 01:40:21;;;;;;;13.50;7.68;;;;;;;3.30;38.96;102318.66;5086738;28;20729;-72
2022/03/18 01:42:49;;;;;;;14.88;9.30;;;;;;;3.27;39.04;102318.69;5088222;28;20097;-71
2022/03/18 01:45:16;;;;;;;15.15;7.82;;;;;;;3.31;38.93;102322.13;5087416;28;20048;-68
2022/03/18 01:47:44;;;;;;;14.80;7.75;;;;;;;3.29;39.06;102323.88;5087768;28;20400;-71
2022/03/18 01:50:13;;;;;;;19.25;9.48;;;;;;;3.28;39.01;102324.75;5087605;28;20052;-70
2022/03/18 01:52:40;;;;;;;18.25;9.93;;;;;;;3.22;39.10;102329.19;5087289;28;20056;-70
2022/03/18 01:55:08;;;;;;;14.57;8.50;;;;;;;3.23;38.82;102332.66;5100879;28;20503;-70
2022/03/18 01:57:35;;;;;;;16.10;8.00;;;;;;;3.23;38.79;102330.91;5101818;28;20059;-71
2022/03/18 02:00:05;;;;;;;16.17;10.20;;;;;;;3.20;39.16;102333.53;5096820;28;20484;-69
2022/03/18 02:02:32;;;;;;;14.95;9.35;;;;;;;3.18;38.95;102337.91;5089725;28;20051;-72
2022/03/18 02:04:59;;;;;;;15.57;9.43;;;;;;;3.16;39.11;102336.19;5086724;28;20048;-70
2022/03/18 02:07:28;;;;;;;16.13;7.72;;;;;;;3.15;39.00;102337.06;5085920;28;20047;-70
2022/03/18 02:09:56;;;;;;;13.07;7.25;;;;;;;3.12;39.21;102340.56;5086207;28;20062;-70
2022/03/18 02:12:23;;;;;;;15.15;8.25;;;;;;;3.13;38.99;102344.03;5086218;28;20183;-71
2022/03/18 02:14:50;;;;;;;13.80;8.05;;;;;;;3.10;39.19;102338.84;5085854;28;20044;-68
2022/03/18 02:17:18;;;;;;;14.20;7.88;;;;;;;3.06;39.42;102333.66;5085715;28;20050;-69
2022/03/18 02:19:58;;;;;;;14.43;8.05;;;;;;;3.07;39.49;102337.13;5085759;28;20702;-70
2022/03/18 02:22:26;;;;;;;16.30;8.30;;;;;;;3.03;39.59;102332.81;5085665;28;20050;-68
2022/03/18 02:24:56;;;;;;;12.15;7.35;;;;;;;3.01;39.57;102326.75;5086421;28;20155;-70
2022/03/18 02:27:23;;;;;;;16.77;9.48;;;;;;;2.97;39.72;102327.63;5086794;28;20067;-70
2022/03/18 02:29:50;;;;;;;17.35;9.80;;;;;;;2.95;39.63;102332.84;5084110;28;20891;-71
2022/03/18 02:32:18;;;;;;;15.75;8.73;;;;;;;2.97;39.63;102343.28;5085659;28;20044;-68
2022/03/18 02:34:45;;;;;;;12.95;9.07;;;;;;;2.94;39.69;102345.94;5085466;28;20044;-71
2022/03/18 02:37:12;;;;;;;17.67;9.73;;;;;;;2.95;39.79;102347.66;5085369;28;20567;-70
2022/03/18 02:39:39;;;;;;;17.60;8.93;;;;;;;2.92;39.95;102359.00;5086036;28;20139;-71
2022/03/18 02:42:08;;;;;;;14.80;8.70;;;;;;;2.91;40.01;102356.38;5084788;28;20123;-69
2022/03/18 02:44:35;;;;;;;19.85;10.50;;;;;;;2.87;40.04;102359.00;5085482;28;20044;-69
2022/03/18 02:47:02;;;;;;;14.60;9.10;;;;;;;2.87;39.76;102369.44;5085336;28;20067;-68
2022/03/18 02:49:29;;;;;;;16.42;9.23;;;;;;;2.84;40.07;102374.69;5085079;28;20058;-69
2022/03/18 02:51:57;;;;;;;15.43;9.65;;;;;;;2.83;40.12;102369.50;5084905;28;20055;-69
2022/03/18 02:54:24;;;;;;;15.50;9.30;;;;;;;2.80;40.01;102364.28;5086231;28;20052;-72
2022/03/18 02:56:51;;;;;;;15.70;9.45;;;;;;;2.79;40.11;102365.16;5086463;28;20051;-72
2022/03/18 02:59:20;;;;;;;18.75;9.02;;;;;;;2.80;40.19;102375.59;5084905;28;20418;-71
2022/03/18 03:01:47;;;;;;;21.65;9.63;;;;;;;2.78;39.93;102371.28;5085159;28;20040;-69
2022/03/18 03:04:15;;;;;;;16.83;9.75;;;;;;;2.75;40.16;102366.91;5085008;28;20048;-68
2022/03/18 03:09:26;;;;;;;11.30;7.40;;;;;;;2.71;40.10;102375.66;5085765;28;20047;-67
2022/03/18 03:11:53;;;;;;;14.27;10.48;;;;;;;2.68;40.45;102373.94;5084098;28;20123;-69
2022/03/18 03:14:22;;;;;;;13.43;7.28;;;;;;;2.66;40.18;102377.41;5085906;28;20593;-69
2022/03/18 03:16:49;;;;;;;11.25;7.80;;;;;;;2.66;40.16;102377.41;5084897;28;20135;-70
2022/03/18 03:19:16;;;;;;;14.07;8.02;;;;;;;2.65;39.99;102379.16;5084818;28;20522;-71
2022/03/18 03:21:43;;;;;;;13.93;7.00;;;;;;;2.64;40.06;102381.78;5085297;28;20052;-68
2022/03/18 03:24:10;;;;;;;16.52;8.65;;;;;;;2.62;40.15;102386.13;5085379;28;20064;-68
2022/03/18 03:26:37;;;;;;;15.90;8.40;;;;;;;2.58;40.40;102384.44;5084091;28;20042;-69
2022/03/18 03:29:04;;;;;;;15.25;7.43;;;;;;;2.57;40.08;102391.38;5083614;28;20492;-68
2022/03/18 03:31:33;;;;;;;17.45;8.75;;;;;;;2.55;40.51;102387.03;5085007;28;20062;-70
2022/03/18 03:34:00;;;;;;;16.73;8.88;;;;;;;2.52;40.22;102400.97;5084175;28;20763;-69
2022/03/18 03:36:27;;;;;;;10.77;6.57;;;;;;;2.49;40.39;102400.97;5084383;28;20139;-68
2022/03/18 03:38:55;;;;;;;17.40;7.90;;;;;;;2.46;40.71;102403.59;5084420;28;20063;-69
2022/03/18 03:41:23;;;;;;;12.10;6.47;;;;;;;2.41;40.62;102407.97;5083886;28;20072;-67
2022/03/18 03:43:50;;;;;;;16.25;7.63;;;;;;;2.39;40.40;102410.56;5083985;28;20108;-67
2022/03/18 03:46:17;;;;;;;13.50;7.35;;;;;;;2.36;40.67;102407.09;5084198;28;20135;-68
2022/03/18 03:48:45;;;;;;;12.07;8.82;;;;;;;2.32;40.94;102410.59;5083899;28;20058;-68
2022/03/18 03:51:12;;;;;;;15.65;7.57;;;;;;;2.28;40.58;102418.44;5085011;28;20044;-69
2022/03/18 03:53:39;;;;;;;11.10;6.38;;;;;;;2.26;40.92;102416.72;5084077;28;20127;-69
2022/03/18 03:56:06;;;;;;;16.15;7.10;;;;;;;2.23;40.97;102414.09;5083335;28;20048;-67
2022/03/18 03:58:33;;;;;;;14.52;7.75;;;;;;;2.19;40.86;102418.47;5084565;28;20047;-68
2022/03/18 04:01:00;;;;;;;29.05;8.18;;;;;;;2.18;41.09;102415.84;5083915;28;20052;-72
2022/03/18 04:03:28;;;;;;;11.90;7.60;;;;;;;2.15;41.19;102424.56;5083979;28;20044;-69
2022/03/18 04:05:56;;;;;;;14.82;7.60;;;;;;;2.14;40.94;102421.97;5084144;28;20047;-68
2022/03/18 04:08:23;;;;;;;13.75;7.03;;;;;;;2.10;40.87;102419.34;5096989;28;20043;-70
2022/03/18 04:10:50;;;;;;;15.85;8.05;;;;;;;2.09;41.13;102425.44;5094924;28;20040;-69
2022/03/18 04:13:17;;;;;;;10.20;6.68;;;;;;;2.07;41.02;102421.97;5095625;28;20036;-69
2022/03/18 04:15:44;;;;;;;15.40;8.18;;;;;;;2.04;41.02;102427.19;5086693;28;20046;-69
2022/03/18 04:18:11;;;;;;;14.05;8.98;;;;;;;2.00;41.12;102435.00;5083044;28;20701;-71
2022/03/18 04:20:39;;;;;;;13.10;6.90;;;;;;;1.99;41.33;102433.28;5083697;28;20131;-68
2022/03/18 04:23:07;;;;;;;7.43;5.63;;;;;;;2.00;41.21;102441.13;5081984;28;20131;-69
2022/03/18 04:25:34;;;;;;;14.45;7.50;;;;;;;1.99;41.18;102441.97;5083300;28;20158;-69
2022/03/18 04:28:01;;;;;;;17.55;8.57;;;;;;;1.98;41.35;102435.03;5082085;28;20048;-70
2022/03/18 04:30:28;;;;;;;17.23;9.68;;;;;;;1.97;41.31;102448.94;5081442;28;20134;-68
2022/03/18 04:32:56;;;;;;;20.52;9.73;;;;;;;1.99;41.34;102452.41;5083638;28;20048;-68
2022/03/18 04:35:23;;;;;;;12.45;7.53;;;;;;;2.01;40.97;102450.66;5083354;28;20040;-70
2022/03/18 04:37:50;;;;;;;14.25;7.35;;;;;;;2.02;40.91;102451.53;5085022;28;20046;-68
2022/03/18 04:40:19;;;;;;;10.10;7.40;;;;;;;1.99;41.11;102454.16;5087561;28;20131;-69
2022/03/18 04:42:46;;;;;;;18.05;9.20;;;;;;;1.98;41.37;102458.50;5087155;28;20047;-71
2022/03/18 04:45:13;;;;;;;22.48;8.77;;;;;;;2.00;41.11;102455.84;5087236;28;20124;-71
2022/03/18 04:47:40;;;;;;;11.48;7.38;;;;;;;1.99;41.45;102462.81;5087279;28;20408;-71
2022/03/18 04:50:09;;;;;;;14.65;7.90;;;;;;;2.00;41.15;102474.09;5088234;28;20044;-68
2022/03/18 04:52:36;;;;;;;12.30;8.05;;;;;;;2.00;41.38;102464.56;5086695;28;20158;-68
2022/03/18 04:55:04;;;;;;;16.70;8.00;;;;;;;2.01;41.46;102471.50;5088795;28;20419;-68
2022/03/18 04:57:33;;;;;;;19.67;8.88;;;;;;;2.05;41.26;102478.47;5088428;28;20048;-70
2022/03/18 05:00:00;;;;;;;13.88;7.95;;;;;;;2.12;41.22;102478.44;5084949;28;20044;-69
2022/03/18 05:02:28;;;;;;;20.13;8.27;;;;;;;2.17;41.24;102485.38;5088013;28;20120;-70
2022/03/18 05:04:55;;;;;;;15.82;8.75;;;;;;;2.24;41.10;102483.66;5085309;28;20048;-68
2022/03/18 05:07:24;;;;;;;13.95;7.45;;;;;;;2.26;41.31;102492.31;5085306;28;20040;-67
2022/03/18 05:09:51;;;;;;;15.40;7.25;;;;;;;2.31;41.22;102490.59;5098422;28;20155;-68
2022/03/18 05:12:18;;;;;;;12.52;7.80;;;;;;;2.35;40.92;102497.53;5095699;28;20047;-69
2022/03/18 05:14:47;;;;;;;14.15;7.55;;;;;;;2.40;41.19;102506.22;5107096;28;20383;-67
2022/03/18 05:17:14;;;;;;;16.90;7.57;;;;;;;2.43;41.26;102506.22;5095036;28;20131;-68
2022/03/18 05:19:41;;;;;;;9.70;5.75;;;;;;;2.49;41.10;102507.94;5092216;28;20556;-70
2022/03/18 05:22:08;;;;;;;16.58;7.97;;;;;;;2.54;40.83;102507.91;5088240;28;20051;-68
2022/03/18 05:24:36;;;;;;;15.82;8.82;;;;;;;2.61;40.87;102507.91;5093503;28;20395;-69
2022/03/18 05:27:04;;;;;;;15.82;8.38;;;;;;;2.67;40.98;102504.41;5093501;28;20719;-69
2022/03/18 05:29:32;;;;;;;13.30;8.15;;;;;;;2.72;40.54;102505.25;5099227;28;20123;-66
2022/03/18 05:32:01;;;;;;;14.07;8.38;;;;;;;2.78;40.80;102501.75;5101800;28;20054;-68
2022/03/18 05:34:28;;;;;;;13.40;7.38;;;;;;;2.83;40.67;102511.28;5089575;28;20483;-68
2022/03/18 05:36:55;;;;;;;14.07;9.40;;;;;;;2.90;40.73;102511.25;5089830;28;20059;-71
2022/03/18 05:39:23;;;;;;;15.23;8.68;;;;;;;2.97;40.77;102515.56;5087978;28;20127;-69
2022/03/18 05:41:50;;;;;;;13.05;7.07;;;;;;;3.00;40.44;102523.41;5087652;28;20048;-71
2022/03/18 05:44:17;;;;;;;15.85;9.38;;;;;;;3.06;40.47;102518.13;5089107;28;20052;-68
2022/03/18 05:46:44;;;;;;;13.90;8.90;;;;;;;3.12;40.42;102520.75;5089020;28;20094;-70
2022/03/18 05:49:12;;;;;;;16.77;8.32;;;;;;;3.18;40.36;102525.06;5087908;28;20097;-68
2022/03/18 05:51:39;;;;;;;16.20;8.02;;;;;;;3.24;40.30;102531.13;5086965;28;20131;-70
2022/03/18 05:54:06;;;;;;;11.93;7.25;;;;;;;3.28;40.19;102534.59;5088221;28;20056;-72
2022/03/18 05:59:19;;;;;;;17.30;9.80;;;;;;;3.39;40.17;102542.38;5085877;28;20051;-72
2022/03/18 06:01:46;;;;;;;13.43;7.20;;;;;;;3.45;40.25;102539.69;5088623;28;20492;-72
2022/03/18 06:04:15;;;;;;;13.82;6.97;;;;;;;3.45;40.31;102535.34;5087135;28;20135;-70
2022/03/18 06:06:43;;;;;;;10.32;7.18;;;;;;;3.51;39.93;102542.28;5086393;28;20090;-70
2022/03/18 06:11:56;;;;;;;12.88;8.38;;;;;;;3.60;39.97;102547.47;5085615;28;20416;-70
2022/03/18 06:14:25;;;;;;;16.20;10.25;;;;;;;3.62;39.97;102550.94;5085916;28;20850;-69
2022/03/18 06:16:53;;;;;;;12.10;7.45;;;;;;;3.69;39.93;102556.09;5084084;28;20044;-67
2022/03/18 06:19:23;;;;;;;15.52;10.00;;;;;;;3.69;39.79;102564.81;5085787;28;20148;-67
2022/03/18 06:21:51;;;;;;;14.38;10.13;;;;;;;3.73;39.70;102566.53;5085469;28;20081;-79
2022/03/18 06:24:19;;;;;;;16.30;9.88;;;;;;;3.81;39.50;102567.34;5083831;28;20048;-67
2022/03/18 06:26:46;;;;;;;15.68;10.18;;;;;;;3.89;39.87;102561.19;5086640;28;20051;-69
2022/03/18 06:29:13;;;;;;;13.95;8.30;;;;;;;3.95;39.35;102567.25;5083027;28;20605;-75
2022/03/18 06:31:40;;;;;;;19.40;9.38;;;;;;;4.01;39.37;102575.03;5086193;28;20054;-68
2022/03/18 06:34:08;;;;;;;14.05;9.07;;;;;;;4.07;39.09;102573.25;5086105;28;20142;-73
2022/03/18 06:36:37;;;;;;;21.88;8.70;;;;;;;4.08;39.02;102578.47;5084081;28;20048;-70
2022/03/18 06:39:04;;;;;;;15.80;7.38;;;;;;;4.12;38.68;102576.69;5085900;28;20060;-70
2022/03/18 06:41:31;;;;;;;22.08;10.75;;;;;;;4.16;38.77;102568.81;5086539;28;20126;-69
2022/03/18 06:43:58;;;;;;;20.98;14.25;;;;;;;4.17;38.53;102570.53;5089324;28;20108;-72
2022/03/18 06:46:26;;;;;;;18.75;12.27;;;;;;;4.27;38.30;102570.44;5087786;28;20044;-70
2022/03/18 06:48:53;;;;;;;19.45;9.07;;;;;;;4.33;38.13;102571.28;5085839;28;20076;-72
2022/03/18 06:51:20;;;;;;;17.58;10.20;;;;;;;4.45;37.79;102574.66;5091616;28;20107;-67
2022/03/18 06:53:49;;;;;;;17.92;7.97;;;;;;;4.53;37.73;102585.94;5100120;28;20114;-72
2022/03/18 06:56:16;;;;;;;17.27;10.40;;;;;;;4.52;37.63;102579.84;5104899;28;20044;-70
2022/03/18 06:58:43;;;;;;;14.40;7.55;;;;;;;4.61;37.44;102581.50;5088882;28;20127;-71
2022/03/18 07:01:11;;;;;;;13.20;7.50;;;;;;;4.72;37.21;102584.84;5083899;28;20482;-70
2022/03/18 07:03:38;;;;;;;13.38;7.78;;;;;;;4.78;37.03;102582.16;5081367;28;20127;-70
2022/03/18 07:06:06;;;;;;;14.90;8.45;;;;;;;4.83;36.56;102581.28;5081987;28;20049;-72
2022/03/18 07:08:33;;;;;;;14.65;7.15;;;;;;;4.90;36.54;102573.31;5081526;28;20067;-71
2022/03/18 07:11:01;;;;;;;9.23;5.82;;;;;;;4.94;36.11;102582.00;5083787;28;20126;-72
2022/03/18 07:13:29;;;;;;;9.52;5.90;;;;;;;5.02;36.00;102582.75;5086026;28;20044;-68
2022/03/18 07:17:54;;;;;;;13.95;7.30;;;;;;;5.13;35.47;102587.88;5084663;28;20047;-69
2022/03/18 07:18:42;;;;;;;14.30;8.95;;;;;;;5.29;35.44;102591.16;5081837;28;20044;-73
2022/03/18 07:21:09;;;;;;;10.60;6.68;;;;;;;5.35;35.08;102586.72;5082860;28;20098;-71
2022/03/18 07:23:36;;;;;;;15.32;8.15;;;;;;;5.47;34.84;102583.06;5082097;28;20151;-71
2022/03/18 07:26:04;;;;;;;11.68;7.03;;;;;;;5.54;34.75;102589.94;5080741;28;20120;-70
2022/03/18 07:28:31;;;;;;;8.05;4.03;;;;;;;5.66;34.27;102590.69;5082521;28;20046;-71
2022/03/18 07:30:58;;;;;;;12.27;5.90;;;;;;;5.69;34.16;102585.38;5080002;28;20050;-72
2022/03/18 07:33:25;;;;;;;10.27;8.40;;;;;;;5.73;33.34;102598.44;5082286;28;20044;-73
2022/03/18 07:35:52;;;;;;;10.27;4.30;;;;;;;5.86;33.00;102593.00;5081227;28;20084;-69
2022/03/18 07:38:20;;;;;;;14.15;5.25;;;;;;;5.91;32.69;102597.28;5081316;28;20040;-70
2022/03/18 07:40:47;;;;;;;10.15;6.43;;;;;;;5.92;32.88;102598.16;5081365;28;20052;-71
2022/03/18 07:43:16;;;;;;;7.97;5.07;;;;;;;5.99;32.80;102596.34;5081328;28;20484;-70
2022/03/18 07:45:43;;;;;;;10.75;6.47;;;;;;;6.06;32.49;102606.69;5095654;28;20052;-70
2022/03/18 07:48:10;;;;;;;10.75;7.07;;;;;;;6.12;32.05;102604.00;5102148;28;20053;-74
2022/03/18 07:50:39;;;;;;;10.00;5.82;;;;;;;6.24;31.75;102618.66;5112682;28;20154;-70
2022/03/18 07:53:07;;;;;;;9.35;6.00;;;;;;;6.36;31.88;102609.72;5102115;28;20082;-69
2022/03/18 07:55:37;;;;;;;9.88;6.20;;;;;;;6.46;31.66;102610.41;5100770;28;20047;-71
2022/03/18 07:58:06;;;;;;;10.75;6.63;;;;;;;6.59;31.59;102608.44;5102710;28;20052;-73
2022/03/18 08:00:35;;;;;;;10.90;5.63;;;;;;;6.68;31.56;102611.78;5099227;28;20071;-70
2022/03/18 08:03:02;;;;;;;10.32;4.97;;;;;;;6.69;31.60;102607.38;5100646;28;20043;-73
2022/03/18 08:05:29;;;;;;;8.77;5.35;;;;;;;6.82;31.54;102606.25;5101758;28;20039;-71
2022/03/18 08:07:56;;;;;;;7.82;4.85;;;;;;;6.94;30.61;102602.53;5100016;28;20043;-74
2022/03/18 08:10:23;;;;;;;8.52;5.10;;;;;;;6.92;30.09;102599.06;5101420;28;20047;-72
2022/03/18 08:12:50;;;;;;;8.75;3.75;;;;;;;7.00;30.21;102605.03;5105475;28;20690;-70
2022/03/18 08:15:20;;;;;;;11.10;6.20;;;;;;;6.96;29.87;102603.38;5105503;28;20138;-72
2022/03/18 08:17:52;;;;;;;10.80;6.22;;;;;;;7.10;29.96;102607.50;5106254;28;20051;-70
2022/03/18 08:20:20;;;;;;;8.30;5.78;;;;;;;7.20;29.93;102609.03;5106176;28;20126;-69
2022/03/18 08:22:48;;;;;;;8.57;5.60;;;;;;;7.25;29.79;102607.16;5109070;28;20043;-70
2022/03/18 08:25:15;;;;;;;8.73;5.28;;;;;;;7.34;29.74;102604.34;5108964;28;20051;-69
2022/03/18 08:27:42;;;;;;;9.43;4.15;;;;;;;7.41;29.72;102608.56;5109381;28;20130;-73
2022/03/18 08:30:12;;;;;;;11.52;5.32;;;;;;;7.37;29.76;102617.44;5104882;28;20126;-70
2022/03/18 08:32:40;;;;;;;8.30;3.63;;;;;;;7.39;29.69;102601.63;5109211;28;20044;-70
2022/03/18 08:35:10;;;;;;;11.50;6.63;;;;;;;7.47;29.31;102610.19;5108639;28;20180;-75
2022/03/18 08:40:21;;;;;;;14.00;6.95;;;;;;;7.60;28.75;102613.44;5110168;28;20058;-69
2022/03/18 08:42:49;;;;;;;16.98;9.60;;;;;;;7.72;28.70;102618.41;5110501;28;20048;-74
2022/03/18 08:45:17;;;;;;;12.40;7.60;;;;;;;7.80;28.70;102619.13;5107681;28;20138;-74
2022/03/18 08:47:47;;;;;;;11.80;8.02;;;;;;;7.84;28.16;102612.03;5107352;28;20044;-72
2022/03/18 08:50:16;;;;;;;10.07;5.85;;;;;;;7.96;27.68;102605.59;5107738;28;20131;-72
2022/03/18 08:52:45;;;;;;;10.63;5.20;;;;;;;8.27;27.67;102604.88;5108800;28;20046;-74
2022/03/18 08:55:12;;;;;;;7.90;4.75;;;;;;;8.29;27.58;102616.22;5109396;28;20500;-72
2022/03/18 08:57:40;;;;;;;10.45;5.90;;;;;;;8.27;27.66;102610.97;5109521;28;20043;-71
2022/03/18 09:00:10;;;;;;;9.55;5.93;;;;;;;8.41;27.56;102606.22;5106501;28;20644;-74
2022/03/18 09:02:37;;;;;;;8.90;5.60;;;;;;;8.53;27.33;102602.44;5108911;28;20303;-72
2022/03/18 09:05:07;;;;;;;10.93;4.95;;;;;;;8.55;27.38;102605.91;5109078;28;20451;-72
2022/03/18 09:07:37;;;;;;;13.13;7.32;;;;;;;8.61;27.52;102600.47;5108787;28;20575;-75
2022/03/18 09:10:05;;;;;;;10.68;6.80;;;;;;;8.79;27.31;102608.78;5111130;28;20043;-71
2022/03/18 09:12:32;;;;;;;9.90;5.70;;;;;;;8.79;27.28;102619.34;5108865;28;20465;-72
2022/03/18 09:14:59;;;;;;;11.07;5.82;;;;;;;8.84;27.38;102620.09;5109203;28;20623;-71
2022/03/18 09:17:26;;;;;;;9.02;6.38;;;;;;;8.89;27.19;102618.16;5108882;28;20150;-72
2022/03/18 09:19:53;;;;;;;10.85;7.40;;;;;;;8.93;26.97;102611.91;5108663;28;20046;-70
2022/03/18 09:22:21;;;;;;;6.47;4.22;;;;;;;9.05;27.11;102630.91;5107705;28;20043;-71
2022/03/18 09:24:50;;;;;;;7.18;3.97;;;;;;;9.06;27.01;102637.94;5107774;28;20051;-70
2022/03/18 09:27:17;;;;;;;10.82;7.47;;;;;;;9.07;27.13;102631.75;5108646;28;20050;-71
2022/03/18 09:29:44;;;;;;;11.30;5.53;;;;;;;9.18;27.12;102627.03;5105986;28;20138;-70
2022/03/18 09:32:11;;;;;;;12.27;7.45;;;;;;;9.22;27.00;102619.88;5105647;28;20043;-68
2022/03/18 09:34:38;;;;;;;13.30;6.63;;;;;;;9.27;27.34;102616.19;5104714;28;20062;-71
2022/03/18 09:37:06;;;;;;;12.15;7.55;;;;;;;9.29;27.11;102618.81;5104341;28;20100;-70
2022/03/18 09:39:33;;;;;;;9.50;5.97;;;;;;;9.22;27.01;102628.69;5105718;28;20142;-69
2022/03/18 09:42:01;;;;;;;9.70;4.80;;;;;;;9.26;27.15;102624.19;5104298;28;20054;-72
2022/03/18 09:44:36;;;;;;;10.98;7.55;;;;;;;9.34;27.28;102627.44;5104996;28;20740;-74
2022/03/18 09:47:05;;;;;;;11.87;6.40;;;;;;;9.56;27.12;102627.66;5102944;28;20668;-72
2022/03/18 09:49:32;;;;;;;9.40;6.53;;;;;;;9.60;26.77;102628.44;5103400;28;20373;-71
2022/03/18 09:51:59;;;;;;;9.65;5.85;;;;;;;9.50;26.28;102633.13;5104961;28;20682;-70
2022/03/18 09:54:27;;;;;;;8.23;5.50;;;;;;;9.50;25.77;102628.72;5104049;28;20047;-70
2022/03/18 09:56:54;;;;;;;8.80;5.25;;;;;;;9.50;25.70;102631.34;5104568;28;20051;-72
2022/03/18 09:59:23;;;;;;;9.88;6.72;;;;;;;9.47;25.72;102631.47;5102645;28;20552;-73
2022/03/18 10:01:50;;;;;;;11.88;6.53;;;;;;;9.57;25.80;102637.31;5103556;28;20044;-72
2022/03/18 10:04:17;;;;;;;11.40;6.43;;;;;;;9.64;25.50;102638.88;5105938;28;20058;-71
2022/03/18 10:06:44;;;;;;;8.32;4.93;;;;;;;9.73;25.46;102635.94;5111032;28;20126;-71
2022/03/18 10:09:13;;;;;;;9.70;5.43;;;;;;;9.84;25.70;102643.53;5110118;28;20075;-72
2022/03/18 10:11:43;;;;;;;13.93;6.70;;;;;;;9.86;25.40;102627.66;5105094;28;20442;-71
2022/03/18 10:14:14;;;;;;;8.13;4.68;;;;;;;9.92;25.59;102638.00;5104344;28;20527;-69
2022/03/18 10:16:44;;;;;;;10.40;5.68;;;;;;;9.89;25.56;102652.16;5104931;28;20074;-72
2022/03/18 10:19:13;;;;;;;8.30;5.63;;;;;;;9.86;25.48;102638.19;5102989;28;20044;-71
2022/03/18 10:21:51;;;;;;;12.02;6.63;;;;;;;9.94;25.20;102652.03;5103663;28;20057;-71
2022/03/18 10:24:23;;;;;;;11.73;5.13;;;;;;;10.02;24.66;102649.16;5103000;28;20125;-71
2022/03/18 10:26:51;;;;;;;9.00;5.97;;;;;;;10.10;24.55;102648.00;5104066;28;20048;-71
2022/03/18 10:29:18;;;;;;;12.48;6.45;;;;;;;10.20;24.88;102645.06;5104139;28;20071;-73
2022/03/18 10:32:00;;;;;;;9.27;5.75;;;;;;;10.25;24.85;102657.19;5103647;28;20135;-71
2022/03/18 10:37:21;;;;;;;9.63;5.50;;;;;;;10.19;24.52;102641.56;5103857;28;20055;-71
2022/03/18 10:39:50;;;;;;;9.25;6.50;;;;;;;10.09;24.74;102643.63;5102206;28;20113;-71
2022/03/18 10:42:18;;;;;;;6.60;5.30;;;;;;;10.08;24.80;102652.47;5102526;28;20059;-72
2022/03/18 10:44:48;;;;;;;7.55;5.07;;;;;;;10.02;25.06;102647.38;5104789;28;20050;-73
2022/03/18 10:47:30;;;;;;;9.68;4.13;;;;;;;10.04;24.89;102642.03;5102679;28;20097;-70
2022/03/18 10:50:17;;;;;;;9.80;6.25;;;;;;;10.19;25.13;102654.75;5103721;28;20130;-70
2022/03/18 10:53:06;;;;;;;10.32;7.35;;;;;;;10.40;24.78;102642.63;5102981;28;20050;-70
2022/03/18 10:55:36;;;;;;;9.45;5.80;;;;;;;10.48;24.67;102645.91;5100829;28;20059;-69
2022/03/18 10:58:06;;;;;;;11.70;5.93;;;;;;;10.61;24.59;102643.69;5101612;28;20135;-72
2022/03/18 11:00:35;;;;;;;10.70;6.90;;;;;;;10.79;24.26;102634.25;5100448;28;20051;-71
2022/03/18 11:03:06;;;;;;;14.40;9.93;;;;;;;10.83;24.24;102637.66;5103051;28;20047;-70
2022/03/18 11:05:35;;;;;;;7.32;5.05;;;;;;;10.67;23.98;102639.97;5101099;28;20075;-71
2022/03/18 11:08:03;;;;;;;10.65;6.32;;;;;;;10.64;24.15;102640.06;5101750;28;20052;-71
2022/03/18 11:13:16;;;;;;;13.77;7.25;;;;;;;10.81;23.67;102624.50;5102148;28;20128;-72
2022/03/18 11:15:45;;;;;;;9.05;6.07;;;;;;;10.62;23.97;102637.47;5101160;28;20138;-72
2022/03/18 11:18:14;;;;;;;8.05;5.65;;;;;;;10.45;24.07;102618.72;5101253;28;20127;-70
2022/03/18 11:20:43;;;;;;;9.60;5.57;;;;;;;10.39;24.25;102634.75;5102507;28;20075;-73
2022/03/18 11:23:18;;;;;;;11.23;6.75;;;;;;;10.47;24.40;102638.88;5102465;28;20047;-71
2022/03/18 11:25:49;;;;;;;8.65;5.45;;;;;;;10.48;24.32;102634.47;5102675;28;20066;-70
2022/03/18 11:28:19;;;;;;;10.10;6.38;;;;;;;10.54;24.12;102628.13;5102623;28;20472;-71
2022/03/18 11:30:48;;;;;;;9.77;6.32;;;;;;;10.66;23.65;102622.38;5100532;28;20519;-70
2022/03/18 11:33:21;;;;;;;9.88;4.45;;;;;;;10.70;23.51;102624.00;5101566;28;20062;-72
2022/03/18 11:36:18;;;;;;;11.98;6.88;;;;;;;10.81;23.59;102621.00;5101131;28;20048;-69
2022/03/18 11:38:53;;;;;;;20.00;10.18;;;;;;;10.86;23.63;102625.19;5100722;28;20044;-70
2022/03/18 11:41:20;;;;;;;15.18;9.65;;;;;;;10.89;22.96;102630.38;5100996;28;20051;-70
2022/03/18 11:43:52;;;;;;;20.63;10.15;;;;;;;10.93;22.88;102619.69;5100390;28;20130;-70
2022/03/18 11:46:25;;;;;;;11.65;5.13;;;;;;;10.89;22.99;102629.50;5101752;28;20055;-73
2022/03/18 11:48:56;;;;;;;10.13;5.38;;;;;;;10.73;23.22;102634.47;5101919;28;20061;-70
2022/03/18 11:51:29;;;;;;;7.88;6.13;;;;;;;10.76;23.19;102628.22;5103353;28;20096;-70